sensor_id;sensor_type;location;lat;lon;timestamp;P1;durP1;ratioP1;P2;durP2;ratioP2
9541;SDS011;4809;48.224;8.572;2023-04-24T00:00:54;0.90;;;0.90;;
9541;SDS011;4809;48.224;8.572;2023-04-24T00:03:26;1.00;;;0.90;;
9541;SDS011;4809;48.224;8.572;2023-04-24T00:05:53;1.30;;;0.77;;
9541;SDS011;4809;48.224;8.572;2023-04-24T00:08:19;2.40;;;0.70;;
9541;SDS011;4809;48.224;8.572;2023-04-24T00:10:45;1.08;;;1.00;;
9541;SDS011;4809;48.224;8.572;2023-04-24T00:13:10;1.52;;;0.70;;
9541;SDS011;4809;48.224;8.572;2023-04-24T00:15:36;1.33;;;0.82;;
9541;SDS011;4809;48.224;8.572;2023-04-24T00:18:02;1.00;;;0.90;;
9541;SDS011;4809;48.224;8.572;2023-04-24T00:20:28;1.67;;;0.90;;
9541;SDS011;4809;48.224;8.572;2023-04-24T00:22:54;0.98;;;0.90;;
9541;SDS011;4809;48.224;8.572;2023-04-24T00:25:20;0.73;;;0.73;;
9541;SDS011;4809;48.224;8.572;2023-04-24T00:27:46;1.05;;;0.90;;
9541;SDS011;4809;48.224;8.572;2023-04-24T00:30:12;0.90;;;0.90;;
9541;SDS011;4809;48.224;8.572;2023-04-24T00:32:37;0.80;;;0.80;;
9541;SDS011;4809;48.224;8.572;2023-04-24T00:35:03;0.80;;;0.80;;
9541;SDS011;4809;48.224;8.572;2023-04-24T00:37:30;0.85;;;0.85;;
9541;SDS011;4809;48.224;8.572;2023-04-24T00:39:56;0.68;;;0.68;;
9541;SDS011;4809;48.224;8.572;2023-04-24T00:42:22;1.35;;;0.90;;
9541;SDS011;4809;48.224;8.572;2023-04-24T00:44:48;2.25;;;1.15;;
9541;SDS011;4809;48.224;8.572;2023-04-24T00:47:13;1.33;;;0.90;;
9541;SDS011;4809;48.224;8.572;2023-04-24T00:49:39;1.98;;;1.00;;
9541;SDS011;4809;48.224;8.572;2023-04-24T00:52:05;1.67;;;0.85;;
9541;SDS011;4809;48.224;8.572;2023-04-24T00:54:33;1.23;;;1.02;;
9541;SDS011;4809;48.224;8.572;2023-04-24T00:57:00;1.13;;;0.73;;
9541;SDS011;4809;48.224;8.572;2023-04-24T00:59:26;2.05;;;1.10;;
9541;SDS011;4809;48.224;8.572;2023-04-24T01:01:52;0.80;;;0.80;;
9541;SDS011;4809;48.224;8.572;2023-04-24T01:04:18;1.20;;;1.10;;
9541;SDS011;4809;48.224;8.572;2023-04-24T01:06:45;1.02;;;0.70;;
9541;SDS011;4809;48.224;8.572;2023-04-24T01:09:11;1.25;;;0.73;;
9541;SDS011;4809;48.224;8.572;2023-04-24T01:11:37;0.80;;;0.80;;
9541;SDS011;4809;48.224;8.572;2023-04-24T01:14:04;2.35;;;0.80;;
9541;SDS011;4809;48.224;8.572;2023-04-24T01:16:30;0.57;;;0.57;;
9541;SDS011;4809;48.224;8.572;2023-04-24T01:18:55;0.93;;;0.90;;
9541;SDS011;4809;48.224;8.572;2023-04-24T01:21:21;1.27;;;0.93;;
9541;SDS011;4809;48.224;8.572;2023-04-24T01:23:48;1.38;;;0.93;;
9541;SDS011;4809;48.224;8.572;2023-04-24T01:26:15;0.80;;;0.80;;
9541;SDS011;4809;48.224;8.572;2023-04-24T01:28:42;1.67;;;0.90;;
9541;SDS011;4809;48.224;8.572;2023-04-24T01:31:08;0.80;;;0.63;;
9541;SDS011;4809;48.224;8.572;2023-04-24T01:33:33;0.50;;;0.50;;
9541;SDS011;4809;48.224;8.572;2023-04-24T01:35:59;1.23;;;0.93;;
9541;SDS011;4809;48.224;8.572;2023-04-24T01:38:25;1.02;;;0.93;;
9541;SDS011;4809;48.224;8.572;2023-04-24T01:40:51;1.77;;;1.02;;
9541;SDS011;4809;48.224;8.572;2023-04-24T01:43:18;0.90;;;0.90;;
9541;SDS011;4809;48.224;8.572;2023-04-24T01:45:44;3.15;;;0.88;;
9541;SDS011;4809;48.224;8.572;2023-04-24T01:48:11;1.02;;;0.90;;
9541;SDS011;4809;48.224;8.572;2023-04-24T01:50:37;2.80;;;0.93;;
9541;SDS011;4809;48.224;8.572;2023-04-24T01:53:03;1.58;;;1.05;;
9541;SDS011;4809;48.224;8.572;2023-04-24T01:55:28;1.00;;;1.00;;
9541;SDS011;4809;48.224;8.572;2023-04-24T01:57:55;1.65;;;0.98;;
9541;SDS011;4809;48.224;8.572;2023-04-24T02:00:21;1.05;;;0.95;;
9541;SDS011;4809;48.224;8.572;2023-04-24T02:02:47;1.45;;;1.10;;
9541;SDS011;4809;48.224;8.572;2023-04-24T02:05:13;1.02;;;0.82;;
9541;SDS011;4809;48.224;8.572;2023-04-24T02:07:38;3.05;;;1.20;;
9541;SDS011;4809;48.224;8.572;2023-04-24T02:10:04;1.02;;;0.90;;
9541;SDS011;4809;48.224;8.572;2023-04-24T02:12:31;1.17;;;0.63;;
9541;SDS011;4809;48.224;8.572;2023-04-24T02:14:56;1.00;;;0.90;;
9541;SDS011;4809;48.224;8.572;2023-04-24T02:17:22;1.70;;;1.05;;
9541;SDS011;4809;48.224;8.572;2023-04-24T02:19:48;0.98;;;0.77;;
9541;SDS011;4809;48.224;8.572;2023-04-24T02:22:13;1.92;;;0.80;;
9541;SDS011;4809;48.224;8.572;2023-04-24T02:24:39;0.57;;;0.57;;
9541;SDS011;4809;48.224;8.572;2023-04-24T02:27:05;1.65;;;0.60;;
9541;SDS011;4809;48.224;8.572;2023-04-24T02:29:31;1.27;;;0.70;;
9541;SDS011;4809;48.224;8.572;2023-04-24T02:31:57;0.95;;;0.70;;
9541;SDS011;4809;48.224;8.572;2023-04-24T02:34:22;0.77;;;0.75;;
9541;SDS011;4809;48.224;8.572;2023-04-24T02:36:48;1.25;;;0.50;;
9541;SDS011;4809;48.224;8.572;2023-04-24T02:39:14;1.85;;;0.60;;
9541;SDS011;4809;48.224;8.572;2023-04-24T02:41:41;0.82;;;0.82;;
9541;SDS011;4809;48.224;8.572;2023-04-24T02:44:07;0.68;;;0.68;;
9541;SDS011;4809;48.224;8.572;2023-04-24T02:46:33;1.25;;;0.70;;
9541;SDS011;4809;48.224;8.572;2023-04-24T02:48:59;1.52;;;0.65;;
9541;SDS011;4809;48.224;8.572;2023-04-24T02:51:24;0.80;;;0.63;;
9541;SDS011;4809;48.224;8.572;2023-04-24T02:53:50;1.20;;;0.80;;
9541;SDS011;4809;48.224;8.572;2023-04-24T02:56:15;0.98;;;0.73;;
9541;SDS011;4809;48.224;8.572;2023-04-24T02:58:41;1.65;;;0.80;;
9541;SDS011;4809;48.224;8.572;2023-04-24T03:01:07;1.10;;;0.80;;
9541;SDS011;4809;48.224;8.572;2023-04-24T03:03:34;1.75;;;0.80;;
9541;SDS011;4809;48.224;8.572;2023-04-24T03:06:01;1.58;;;1.02;;
9541;SDS011;4809;48.224;8.572;2023-04-24T03:08:26;1.25;;;0.75;;
9541;SDS011;4809;48.224;8.572;2023-04-24T03:10:52;2.05;;;0.80;;
9541;SDS011;4809;48.224;8.572;2023-04-24T03:13:18;2.40;;;1.10;;
9541;SDS011;4809;48.224;8.572;2023-04-24T03:15:43;1.45;;;1.08;;
9541;SDS011;4809;48.224;8.572;2023-04-24T03:18:10;1.48;;;1.00;;
9541;SDS011;4809;48.224;8.572;2023-04-24T03:20:35;1.05;;;0.93;;
9541;SDS011;4809;48.224;8.572;2023-04-24T03:23:02;2.20;;;1.10;;
9541;SDS011;4809;48.224;8.572;2023-04-24T03:25:28;1.77;;;1.20;;
9541;SDS011;4809;48.224;8.572;2023-04-24T03:27:54;1.65;;;1.25;;
9541;SDS011;4809;48.224;8.572;2023-04-24T03:30:19;1.98;;;0.95;;
9541;SDS011;4809;48.224;8.572;2023-04-24T03:32:45;2.08;;;1.00;;
9541;SDS011;4809;48.224;8.572;2023-04-24T03:35:11;1.13;;;0.82;;
9541;SDS011;4809;48.224;8.572;2023-04-24T03:37:36;2.47;;;1.10;;
9541;SDS011;4809;48.224;8.572;2023-04-24T03:40:02;2.13;;;1.08;;
9541;SDS011;4809;48.224;8.572;2023-04-24T03:42:29;1.23;;;0.85;;
9541;SDS011;4809;48.224;8.572;2023-04-24T03:44:55;2.45;;;1.10;;
9541;SDS011;4809;48.224;8.572;2023-04-24T03:47:20;1.23;;;0.98;;
9541;SDS011;4809;48.224;8.572;2023-04-24T03:49:46;1.10;;;1.00;;
9541;SDS011;4809;48.224;8.572;2023-04-24T03:52:11;1.08;;;1.00;;
9541;SDS011;4809;48.224;8.572;2023-04-24T03:54:37;1.30;;;1.00;;
9541;SDS011;4809;48.224;8.572;2023-04-24T03:57:03;1.60;;;1.00;;
9541;SDS011;4809;48.224;8.572;2023-04-24T03:59:29;1.30;;;1.20;;
9541;SDS011;4809;48.224;8.572;2023-04-24T04:01:55;1.05;;;1.05;;
9541;SDS011;4809;48.224;8.572;2023-04-24T04:04:21;1.33;;;1.10;;
9541;SDS011;4809;48.224;8.572;2023-04-24T04:06:47;1.33;;;1.20;;
9541;SDS011;4809;48.224;8.572;2023-04-24T04:09:12;1.80;;;1.10;;
9541;SDS011;4809;48.224;8.572;2023-04-24T04:11:38;2.70;;;1.13;;
9541;SDS011;4809;48.224;8.572;2023-04-24T04:14:07;1.42;;;1.10;;
9541;SDS011;4809;48.224;8.572;2023-04-24T04:16:32;1.75;;;1.00;;
9541;SDS011;4809;48.224;8.572;2023-04-24T04:18:58;1.85;;;1.08;;
9541;SDS011;4809;48.224;8.572;2023-04-24T04:21:24;1.95;;;1.40;;
9541;SDS011;4809;48.224;8.572;2023-04-24T04:23:49;1.55;;;1.45;;
9541;SDS011;4809;48.224;8.572;2023-04-24T04:26:15;2.63;;;1.80;;
9541;SDS011;4809;48.224;8.572;2023-04-24T04:28:41;2.42;;;2.13;;
9541;SDS011;4809;48.224;8.572;2023-04-24T04:31:06;2.38;;;1.90;;
9541;SDS011;4809;48.224;8.572;2023-04-24T04:33:32;3.90;;;2.10;;
9541;SDS011;4809;48.224;8.572;2023-04-24T04:35:58;2.20;;;2.00;;
9541;SDS011;4809;48.224;8.572;2023-04-24T04:38:25;2.60;;;2.20;;
9541;SDS011;4809;48.224;8.572;2023-04-24T04:40:54;4.95;;;2.88;;
9541;SDS011;4809;48.224;8.572;2023-04-24T04:43:22;3.15;;;2.50;;
9541;SDS011;4809;48.224;8.572;2023-04-24T04:45:49;7.60;;;4.65;;
9541;SDS011;4809;48.224;8.572;2023-04-24T04:48:16;2.75;;;2.55;;
9541;SDS011;4809;48.224;8.572;2023-04-24T04:50:43;3.88;;;3.38;;
9541;SDS011;4809;48.224;8.572;2023-04-24T04:53:09;5.38;;;4.47;;
9541;SDS011;4809;48.224;8.572;2023-04-24T04:55:35;4.03;;;3.58;;
9541;SDS011;4809;48.224;8.572;2023-04-24T04:58:01;2.50;;;2.17;;
9541;SDS011;4809;48.224;8.572;2023-04-24T05:00:27;2.15;;;1.95;;
9541;SDS011;4809;48.224;8.572;2023-04-24T05:02:54;3.35;;;2.30;;
9541;SDS011;4809;48.224;8.572;2023-04-24T05:05:19;2.45;;;2.03;;
9541;SDS011;4809;48.224;8.572;2023-04-24T05:07:45;2.17;;;1.98;;
9541;SDS011;4809;48.224;8.572;2023-04-24T05:10:11;2.95;;;2.30;;
9541;SDS011;4809;48.224;8.572;2023-04-24T05:12:36;2.33;;;2.13;;
9541;SDS011;4809;48.224;8.572;2023-04-24T05:15:02;2.50;;;2.30;;
9541;SDS011;4809;48.224;8.572;2023-04-24T05:17:28;2.80;;;2.50;;
9541;SDS011;4809;48.224;8.572;2023-04-24T05:19:54;2.78;;;2.22;;
9541;SDS011;4809;48.224;8.572;2023-04-24T05:22:20;2.40;;;2.20;;
9541;SDS011;4809;48.224;8.572;2023-04-24T05:24:46;2.42;;;2.22;;
9541;SDS011;4809;48.224;8.572;2023-04-24T05:27:12;3.45;;;2.42;;
9541;SDS011;4809;48.224;8.572;2023-04-24T05:29:38;2.53;;;2.30;;
9541;SDS011;4809;48.224;8.572;2023-04-24T05:32:05;3.05;;;2.10;;
9541;SDS011;4809;48.224;8.572;2023-04-24T05:34:31;3.03;;;2.35;;
9541;SDS011;4809;48.224;8.572;2023-04-24T05:36:57;2.67;;;2.35;;
9541;SDS011;4809;48.224;8.572;2023-04-24T05:39:23;3.20;;;2.90;;
9541;SDS011;4809;48.224;8.572;2023-04-24T05:41:50;3.63;;;2.80;;
9541;SDS011;4809;48.224;8.572;2023-04-24T05:44:15;2.75;;;2.55;;
9541;SDS011;4809;48.224;8.572;2023-04-24T05:46:41;3.50;;;2.80;;
9541;SDS011;4809;48.224;8.572;2023-04-24T05:49:07;3.20;;;2.60;;
9541;SDS011;4809;48.224;8.572;2023-04-24T05:51:32;2.97;;;2.53;;
9541;SDS011;4809;48.224;8.572;2023-04-24T05:53:58;4.07;;;2.58;;
9541;SDS011;4809;48.224;8.572;2023-04-24T05:56:24;3.17;;;2.50;;
9541;SDS011;4809;48.224;8.572;2023-04-24T05:58:50;2.78;;;2.40;;
9541;SDS011;4809;48.224;8.572;2023-04-24T06:01:15;2.70;;;2.50;;
9541;SDS011;4809;48.224;8.572;2023-04-24T06:03:41;3.00;;;2.60;;
9541;SDS011;4809;48.224;8.572;2023-04-24T06:06:07;3.30;;;2.65;;
9541;SDS011;4809;48.224;8.572;2023-04-24T06:08:33;2.63;;;2.40;;
9541;SDS011;4809;48.224;8.572;2023-04-24T06:10:59;2.70;;;2.50;;
9541;SDS011;4809;48.224;8.572;2023-04-24T06:13:25;3.00;;;2.50;;
9541;SDS011;4809;48.224;8.572;2023-04-24T06:15:54;2.53;;;2.33;;
9541;SDS011;4809;48.224;8.572;2023-04-24T06:18:20;2.65;;;2.40;;
9541;SDS011;4809;48.224;8.572;2023-04-24T06:20:46;2.58;;;2.22;;
9541;SDS011;4809;48.224;8.572;2023-04-24T06:23:11;2.63;;;2.38;;
9541;SDS011;4809;48.224;8.572;2023-04-24T06:25:37;3.10;;;2.40;;
9541;SDS011;4809;48.224;8.572;2023-04-24T06:28:03;2.72;;;2.30;;
9541;SDS011;4809;48.224;8.572;2023-04-24T06:30:29;3.15;;;2.20;;
9541;SDS011;4809;48.224;8.572;2023-04-24T06:32:55;3.22;;;2.40;;
9541;SDS011;4809;48.224;8.572;2023-04-24T06:35:21;3.00;;;2.10;;
9541;SDS011;4809;48.224;8.572;2023-04-24T06:37:46;3.17;;;2.40;;
9541;SDS011;4809;48.224;8.572;2023-04-24T06:40:12;2.60;;;2.20;;
9541;SDS011;4809;48.224;8.572;2023-04-24T06:42:38;3.67;;;2.13;;
9541;SDS011;4809;48.224;8.572;2023-04-24T06:45:04;2.60;;;2.10;;
9541;SDS011;4809;48.224;8.572;2023-04-24T06:47:30;2.50;;;2.30;;
9541;SDS011;4809;48.224;8.572;2023-04-24T06:49:56;3.47;;;2.50;;
9541;SDS011;4809;48.224;8.572;2023-04-24T06:52:22;2.55;;;2.35;;
9541;SDS011;4809;48.224;8.572;2023-04-24T06:54:48;2.88;;;2.50;;
9541;SDS011;4809;48.224;8.572;2023-04-24T06:57:13;2.80;;;2.42;;
9541;SDS011;4809;48.224;8.572;2023-04-24T06:59:41;2.63;;;2.42;;
9541;SDS011;4809;48.224;8.572;2023-04-24T07:02:07;4.28;;;3.55;;
9541;SDS011;4809;48.224;8.572;2023-04-24T07:04:32;3.03;;;2.50;;
9541;SDS011;4809;48.224;8.572;2023-04-24T07:06:58;3.72;;;2.40;;
9541;SDS011;4809;48.224;8.572;2023-04-24T07:09:24;1.30;;;1.20;;
9541;SDS011;4809;48.224;8.572;2023-04-24T07:11:51;1.40;;;1.40;;
9541;SDS011;4809;48.224;8.572;2023-04-24T07:14:17;1.33;;;1.23;;
9541;SDS011;4809;48.224;8.572;2023-04-24T07:16:43;1.27;;;1.20;;
9541;SDS011;4809;48.224;8.572;2023-04-24T07:19:09;1.35;;;1.30;;
9541;SDS011;4809;48.224;8.572;2023-04-24T07:21:34;1.40;;;1.30;;
9541;SDS011;4809;48.224;8.572;2023-04-24T07:24:00;1.30;;;1.30;;
9541;SDS011;4809;48.224;8.572;2023-04-24T07:26:26;1.55;;;1.25;;
9541;SDS011;4809;48.224;8.572;2023-04-24T07:28:53;1.67;;;1.45;;
9541;SDS011;4809;48.224;8.572;2023-04-24T07:31:20;1.83;;;1.70;;
9541;SDS011;4809;48.224;8.572;2023-04-24T07:33:46;1.60;;;1.50;;
9541;SDS011;4809;48.224;8.572;2023-04-24T07:36:11;1.88;;;1.60;;
9541;SDS011;4809;48.224;8.572;2023-04-24T07:38:41;2.05;;;1.85;;
9541;SDS011;4809;48.224;8.572;2023-04-24T07:41:07;2.15;;;1.55;;
9541;SDS011;4809;48.224;8.572;2023-04-24T07:43:35;2.35;;;2.05;;
9541;SDS011;4809;48.224;8.572;2023-04-24T07:46:00;2.30;;;2.10;;
9541;SDS011;4809;48.224;8.572;2023-04-24T07:48:26;2.15;;;1.95;;
9541;SDS011;4809;48.224;8.572;2023-04-24T07:50:52;2.80;;;2.25;;
9541;SDS011;4809;48.224;8.572;2023-04-24T07:53:18;3.00;;;2.35;;
9541;SDS011;4809;48.224;8.572;2023-04-24T07:55:44;4.93;;;3.20;;
9541;SDS011;4809;48.224;8.572;2023-04-24T07:58:11;2.65;;;2.45;;
9541;SDS011;4809;48.224;8.572;2023-04-24T08:00:36;4.40;;;3.08;;
9541;SDS011;4809;48.224;8.572;2023-04-24T08:03:02;4.72;;;3.75;;
9541;SDS011;4809;48.224;8.572;2023-04-24T08:05:28;3.92;;;3.20;;
9541;SDS011;4809;48.224;8.572;2023-04-24T08:07:54;4.05;;;3.10;;
9541;SDS011;4809;48.224;8.572;2023-04-24T08:10:23;3.10;;;2.80;;
9541;SDS011;4809;48.224;8.572;2023-04-24T08:12:50;3.30;;;3.00;;
9541;SDS011;4809;48.224;8.572;2023-04-24T08:15:16;2.83;;;2.25;;
9541;SDS011;4809;48.224;8.572;2023-04-24T08:17:42;4.20;;;2.50;;
9541;SDS011;4809;48.224;8.572;2023-04-24T08:20:08;2.45;;;2.20;;
9541;SDS011;4809;48.224;8.572;2023-04-24T08:22:38;3.17;;;2.60;;
9541;SDS011;4809;48.224;8.572;2023-04-24T08:25:05;2.50;;;2.30;;
9541;SDS011;4809;48.224;8.572;2023-04-24T08:27:31;3.15;;;2.65;;
9541;SDS011;4809;48.224;8.572;2023-04-24T08:29:57;2.63;;;2.42;;
9541;SDS011;4809;48.224;8.572;2023-04-24T08:32:26;4.13;;;2.50;;
9541;SDS011;4809;48.224;8.572;2023-04-24T08:34:54;3.10;;;2.60;;
9541;SDS011;4809;48.224;8.572;2023-04-24T08:37:21;4.13;;;2.90;;
9541;SDS011;4809;48.224;8.572;2023-04-24T08:39:47;3.85;;;2.70;;
9541;SDS011;4809;48.224;8.572;2023-04-24T08:42:13;3.10;;;2.60;;
9541;SDS011;4809;48.224;8.572;2023-04-24T08:44:40;6.00;;;2.80;;
9541;SDS011;4809;48.224;8.572;2023-04-24T08:47:07;3.78;;;2.85;;
9541;SDS011;4809;48.224;8.572;2023-04-24T08:49:33;3.47;;;2.72;;
9541;SDS011;4809;48.224;8.572;2023-04-24T08:52:00;4.25;;;2.58;;
9541;SDS011;4809;48.224;8.572;2023-04-24T08:54:28;3.10;;;2.55;;
9541;SDS011;4809;48.224;8.572;2023-04-24T08:56:54;3.92;;;2.65;;
9541;SDS011;4809;48.224;8.572;2023-04-24T08:59:25;3.75;;;2.60;;
9541;SDS011;4809;48.224;8.572;2023-04-24T09:01:51;2.97;;;2.58;;
9541;SDS011;4809;48.224;8.572;2023-04-24T09:04:18;4.30;;;2.60;;
9541;SDS011;4809;48.224;8.572;2023-04-24T09:06:47;3.83;;;2.63;;
9541;SDS011;4809;48.224;8.572;2023-04-24T09:09:14;4.20;;;2.63;;
9541;SDS011;4809;48.224;8.572;2023-04-24T09:11:41;2.90;;;2.50;;
9541;SDS011;4809;48.224;8.572;2023-04-24T09:14:10;2.90;;;2.60;;
9541;SDS011;4809;48.224;8.572;2023-04-24T09:16:36;3.80;;;2.78;;
9541;SDS011;4809;48.224;8.572;2023-04-24T09:19:02;3.00;;;2.67;;
9541;SDS011;4809;48.224;8.572;2023-04-24T09:21:37;3.60;;;2.40;;
9541;SDS011;4809;48.224;8.572;2023-04-24T09:24:06;2.75;;;2.50;;
9541;SDS011;4809;48.224;8.572;2023-04-24T09:26:34;3.05;;;2.50;;
9541;SDS011;4809;48.224;8.572;2023-04-24T09:29:01;3.53;;;2.75;;
9541;SDS011;4809;48.224;8.572;2023-04-24T09:31:29;4.70;;;3.17;;
9541;SDS011;4809;48.224;8.572;2023-04-24T09:33:55;7.32;;;4.75;;
9541;SDS011;4809;48.224;8.572;2023-04-24T09:36:30;4.70;;;3.83;;
9541;SDS011;4809;48.224;8.572;2023-04-24T09:39:03;3.33;;;2.80;;
9541;SDS011;4809;48.224;8.572;2023-04-24T09:41:31;4.75;;;2.90;;
9541;SDS011;4809;48.224;8.572;2023-04-24T09:43:58;2.92;;;2.65;;
9541;SDS011;4809;48.224;8.572;2023-04-24T09:46:41;3.85;;;3.10;;
9541;SDS011;4809;48.224;8.572;2023-04-24T09:49:08;3.58;;;2.78;;
9541;SDS011;4809;48.224;8.572;2023-04-24T09:51:36;3.88;;;2.67;;
9541;SDS011;4809;48.224;8.572;2023-04-24T09:54:03;3.28;;;2.80;;
9541;SDS011;4809;48.224;8.572;2023-04-24T09:56:41;3.78;;;3.00;;
9541;SDS011;4809;48.224;8.572;2023-04-24T09:59:11;3.45;;;2.75;;
9541;SDS011;4809;48.224;8.572;2023-04-24T10:01:38;3.50;;;2.72;;
9541;SDS011;4809;48.224;8.572;2023-04-24T10:06:54;3.95;;;2.55;;
9541;SDS011;4809;48.224;8.572;2023-04-24T10:09:22;3.13;;;2.30;;
9541;SDS011;4809;48.224;8.572;2023-04-24T10:11:51;2.75;;;2.10;;
9541;SDS011;4809;48.224;8.572;2023-04-24T10:14:19;3.63;;;2.10;;
9541;SDS011;4809;48.224;8.572;2023-04-24T10:16:46;2.72;;;2.10;;
9541;SDS011;4809;48.224;8.572;2023-04-24T10:19:16;2.40;;;2.13;;
9541;SDS011;4809;48.224;8.572;2023-04-24T10:21:44;3.38;;;2.20;;
9541;SDS011;4809;48.224;8.572;2023-04-24T10:24:16;2.92;;;1.95;;
9541;SDS011;4809;48.224;8.572;2023-04-24T10:26:44;3.22;;;2.00;;
9541;SDS011;4809;48.224;8.572;2023-04-24T10:29:15;3.00;;;1.95;;
9541;SDS011;4809;48.224;8.572;2023-04-24T10:31:42;4.85;;;1.95;;
9541;SDS011;4809;48.224;8.572;2023-04-24T10:34:10;3.30;;;2.30;;
9541;SDS011;4809;48.224;8.572;2023-04-24T10:36:40;2.63;;;2.03;;
9541;SDS011;4809;48.224;8.572;2023-04-24T10:39:11;2.00;;;1.80;;
9541;SDS011;4809;48.224;8.572;2023-04-24T10:41:40;2.67;;;1.95;;
9541;SDS011;4809;48.224;8.572;2023-04-24T10:44:06;3.45;;;2.10;;
9541;SDS011;4809;48.224;8.572;2023-04-24T10:46:44;2.47;;;1.80;;
9541;SDS011;4809;48.224;8.572;2023-04-24T10:49:14;4.03;;;1.90;;
9541;SDS011;4809;48.224;8.572;2023-04-24T10:51:50;2.25;;;1.90;;
9541;SDS011;4809;48.224;8.572;2023-04-24T11:00:32;2.53;;;1.80;;
9541;SDS011;4809;48.224;8.572;2023-04-24T11:02:39;3.35;;;1.67;;
9541;SDS011;4809;48.224;8.572;2023-04-24T11:05:08;1.60;;;1.50;;
9541;SDS011;4809;48.224;8.572;2023-04-24T11:10:40;2.75;;;1.70;;
9541;SDS011;4809;48.224;8.572;2023-04-24T11:13:08;1.70;;;1.60;;
9541;SDS011;4809;48.224;8.572;2023-04-24T11:15:34;1.55;;;1.45;;
9541;SDS011;4809;48.224;8.572;2023-04-24T11:18:00;1.77;;;1.67;;
9541;SDS011;4809;48.224;8.572;2023-04-24T11:20:26;2.35;;;1.83;;
9541;SDS011;4809;48.224;8.572;2023-04-24T11:22:54;3.33;;;2.05;;
9541;SDS011;4809;48.224;8.572;2023-04-24T11:25:22;2.45;;;1.60;;
9541;SDS011;4809;48.224;8.572;2023-04-24T11:27:48;1.67;;;1.42;;
9541;SDS011;4809;48.224;8.572;2023-04-24T11:30:19;3.63;;;2.17;;
9541;SDS011;4809;48.224;8.572;2023-04-24T11:32:49;1.73;;;1.40;;
9541;SDS011;4809;48.224;8.572;2023-04-24T11:35:22;2.42;;;1.55;;
9541;SDS011;4809;48.224;8.572;2023-04-24T11:37:51;1.80;;;1.70;;
9541;SDS011;4809;48.224;8.572;2023-04-24T11:40:18;1.80;;;1.70;;
9541;SDS011;4809;48.224;8.572;2023-04-24T11:42:49;1.52;;;1.42;;
9541;SDS011;4809;48.224;8.572;2023-04-24T11:45:16;1.67;;;1.58;;
9541;SDS011;4809;48.224;8.572;2023-04-24T11:47:44;1.80;;;1.70;;
9541;SDS011;4809;48.224;8.572;2023-04-24T11:50:14;2.00;;;1.60;;
9541;SDS011;4809;48.224;8.572;2023-04-24T11:52:41;1.55;;;1.45;;
9541;SDS011;4809;48.224;8.572;2023-04-24T11:57:42;1.50;;;1.40;;
9541;SDS011;4809;48.224;8.572;2023-04-24T12:00:14;1.60;;;1.50;;
9541;SDS011;4809;48.224;8.572;2023-04-24T12:02:48;1.50;;;1.40;;
9541;SDS011;4809;48.224;8.572;2023-04-24T12:05:25;2.33;;;1.48;;
9541;SDS011;4809;48.224;8.572;2023-04-24T12:07:52;1.52;;;1.42;;
9541;SDS011;4809;48.224;8.572;2023-04-24T12:10:21;1.38;;;1.30;;
9541;SDS011;4809;48.224;8.572;2023-04-24T12:12:47;2.10;;;1.70;;
9541;SDS011;4809;48.224;8.572;2023-04-24T12:15:15;2.50;;;1.60;;
9541;SDS011;4809;48.224;8.572;2023-04-24T12:17:41;2.65;;;2.20;;
9541;SDS011;4809;48.224;8.572;2023-04-24T12:20:08;1.90;;;1.80;;
9541;SDS011;4809;48.224;8.572;2023-04-24T12:22:49;1.50;;;1.40;;
9541;SDS011;4809;48.224;8.572;2023-04-24T12:25:20;1.50;;;1.40;;
9541;SDS011;4809;48.224;8.572;2023-04-24T12:30:30;1.50;;;1.40;;
9541;SDS011;4809;48.224;8.572;2023-04-24T12:33:00;1.50;;;1.40;;
9541;SDS011;4809;48.224;8.572;2023-04-24T12:35:28;1.58;;;1.40;;
9541;SDS011;4809;48.224;8.572;2023-04-24T12:38:04;1.73;;;1.40;;
9541;SDS011;4809;48.224;8.572;2023-04-24T12:40:34;1.55;;;1.45;;
9541;SDS011;4809;48.224;8.572;2023-04-24T12:43:00;1.50;;;1.40;;
9541;SDS011;4809;48.224;8.572;2023-04-24T12:45:26;1.92;;;1.30;;
9541;SDS011;4809;48.224;8.572;2023-04-24T12:47:53;2.00;;;1.30;;
9541;SDS011;4809;48.224;8.572;2023-04-24T12:50:18;1.85;;;1.60;;
9541;SDS011;4809;48.224;8.572;2023-04-24T12:52:44;1.77;;;1.27;;
9541;SDS011;4809;48.224;8.572;2023-04-24T12:55:10;1.60;;;1.50;;
9541;SDS011;4809;48.224;8.572;2023-04-24T12:57:37;1.40;;;1.30;;
9541;SDS011;4809;48.224;8.572;2023-04-24T13:00:04;1.50;;;1.40;;
9541;SDS011;4809;48.224;8.572;2023-04-24T13:02:31;1.50;;;1.40;;
9541;SDS011;4809;48.224;8.572;2023-04-24T13:04:58;1.50;;;1.40;;
9541;SDS011;4809;48.224;8.572;2023-04-24T13:07:25;1.50;;;1.40;;
9541;SDS011;4809;48.224;8.572;2023-04-24T13:09:51;2.35;;;1.50;;
9541;SDS011;4809;48.224;8.572;2023-04-24T13:12:17;1.42;;;1.33;;
9541;SDS011;4809;48.224;8.572;2023-04-24T13:14:44;1.40;;;1.30;;
9541;SDS011;4809;48.224;8.572;2023-04-24T13:17:10;2.05;;;1.38;;
9541;SDS011;4809;48.224;8.572;2023-04-24T13:19:38;2.80;;;1.80;;
9541;SDS011;4809;48.224;8.572;2023-04-24T13:22:06;2.58;;;1.60;;
9541;SDS011;4809;48.224;8.572;2023-04-24T13:24:33;3.35;;;1.42;;
9541;SDS011;4809;48.224;8.572;2023-04-24T13:26:59;1.88;;;1.42;;
9541;SDS011;4809;48.224;8.572;2023-04-24T13:29:25;2.70;;;1.92;;
9541;SDS011;4809;48.224;8.572;2023-04-24T13:31:52;3.60;;;2.30;;
9541;SDS011;4809;48.224;8.572;2023-04-24T13:34:21;3.17;;;1.60;;
9541;SDS011;4809;48.224;8.572;2023-04-24T13:36:54;1.55;;;1.40;;
9541;SDS011;4809;48.224;8.572;2023-04-24T13:39:21;3.28;;;2.30;;
9541;SDS011;4809;48.224;8.572;2023-04-24T13:41:48;1.55;;;1.50;;
9541;SDS011;4809;48.224;8.572;2023-04-24T13:44:14;2.35;;;1.58;;
9541;SDS011;4809;48.224;8.572;2023-04-24T13:46:41;1.60;;;1.50;;
9541;SDS011;4809;48.224;8.572;2023-04-24T13:49:09;1.60;;;1.50;;
9541;SDS011;4809;48.224;8.572;2023-04-24T13:51:35;1.40;;;1.30;;
9541;SDS011;4809;48.224;8.572;2023-04-24T13:54:00;1.60;;;1.50;;
9541;SDS011;4809;48.224;8.572;2023-04-24T13:56:26;1.60;;;1.50;;
9541;SDS011;4809;48.224;8.572;2023-04-24T13:58:52;1.80;;;1.30;;
9541;SDS011;4809;48.224;8.572;2023-04-24T14:01:19;1.90;;;1.50;;
9541;SDS011;4809;48.224;8.572;2023-04-24T14:03:46;1.65;;;1.40;;
9541;SDS011;4809;48.224;8.572;2023-04-24T14:06:11;1.73;;;1.52;;
9541;SDS011;4809;48.224;8.572;2023-04-24T14:08:37;2.08;;;1.70;;
9541;SDS011;4809;48.224;8.572;2023-04-24T14:11:03;1.45;;;1.40;;
9541;SDS011;4809;48.224;8.572;2023-04-24T14:13:29;2.75;;;1.65;;
9541;SDS011;4809;48.224;8.572;2023-04-24T14:15:55;1.60;;;1.50;;
9541;SDS011;4809;48.224;8.572;2023-04-24T14:18:20;2.40;;;1.65;;
9541;SDS011;4809;48.224;8.572;2023-04-24T14:20:46;1.80;;;1.50;;
9541;SDS011;4809;48.224;8.572;2023-04-24T14:23:12;1.88;;;1.40;;
9541;SDS011;4809;48.224;8.572;2023-04-24T14:25:37;2.22;;;1.58;;
9541;SDS011;4809;48.224;8.572;2023-04-24T14:28:03;1.63;;;1.52;;
9541;SDS011;4809;48.224;8.572;2023-04-24T14:30:30;1.73;;;1.63;;
9541;SDS011;4809;48.224;8.572;2023-04-24T14:32:56;1.80;;;1.70;;
9541;SDS011;4809;48.224;8.572;2023-04-24T14:35:21;1.90;;;1.75;;
9541;SDS011;4809;48.224;8.572;2023-04-24T14:37:47;1.83;;;1.73;;
9541;SDS011;4809;48.224;8.572;2023-04-24T14:40:14;2.33;;;1.80;;
9541;SDS011;4809;48.224;8.572;2023-04-24T14:42:40;2.13;;;1.77;;
9541;SDS011;4809;48.224;8.572;2023-04-24T14:45:05;1.73;;;1.63;;
9541;SDS011;4809;48.224;8.572;2023-04-24T14:47:35;1.90;;;1.80;;
9541;SDS011;4809;48.224;8.572;2023-04-24T14:50:02;2.60;;;2.40;;
9541;SDS011;4809;48.224;8.572;2023-04-24T14:52:28;2.03;;;1.80;;
9541;SDS011;4809;48.224;8.572;2023-04-24T14:54:54;1.60;;;1.50;;
9541;SDS011;4809;48.224;8.572;2023-04-24T14:57:20;2.17;;;1.98;;
9541;SDS011;4809;48.224;8.572;2023-04-24T14:59:45;3.50;;;3.20;;
9541;SDS011;4809;48.224;8.572;2023-04-24T15:02:11;2.05;;;1.80;;
9541;SDS011;4809;48.224;8.572;2023-04-24T15:04:37;1.85;;;1.75;;
9541;SDS011;4809;48.224;8.572;2023-04-24T15:07:03;1.77;;;1.67;;
9541;SDS011;4809;48.224;8.572;2023-04-24T15:09:29;2.42;;;1.77;;
9541;SDS011;4809;48.224;8.572;2023-04-24T15:11:56;1.60;;;1.50;;
9541;SDS011;4809;48.224;8.572;2023-04-24T15:14:22;1.95;;;1.48;;
9541;SDS011;4809;48.224;8.572;2023-04-24T15:16:51;12.25;;;10.40;;
9541;SDS011;4809;48.224;8.572;2023-04-24T15:19:16;3.45;;;2.55;;
9541;SDS011;4809;48.224;8.572;2023-04-24T15:21:42;2.10;;;1.90;;
9541;SDS011;4809;48.224;8.572;2023-04-24T15:24:09;1.98;;;1.88;;
9541;SDS011;4809;48.224;8.572;2023-04-24T15:26:35;3.80;;;1.80;;
9541;SDS011;4809;48.224;8.572;2023-04-24T15:29:01;2.17;;;1.98;;